Terminal Aerodrome Forecast
Issued by NWS

Home | Current Version | Previous Version | Text Only | Print | Product List | Glossary On
Versions: 1 2 3 4 5 6 7 8 9 10 11 12 13 14 15 16
000
FTUS42 TJSJ 282344
TAFJSJ
TAF
TJSJ 282344Z 2900/2924 14006KT P6SM SCT045 BKN100
     FM291330 09010KT P6SM SCT025 BKN100
     FM291700 VRB12KT P6SM VCTS SCT022CB BKN040 BKN090
     FM292200 11007KT P6SM SCT030 SCT100=

USA.gov is the U.S. government's official web portal to all federal, state and local government web resources and services.